sensor_id;sensor_type;location;lat;lon;timestamp;temperature;humidity
41262;DHT22;29629;52.532;13.352;2024-02-15T00:00:37;9.60;99.90
41262;DHT22;29629;52.532;13.352;2024-02-15T00:03:04;9.60;99.90
41262;DHT22;29629;52.532;13.352;2024-02-15T00:05:33;9.50;99.90
41262;DHT22;29629;52.532;13.352;2024-02-15T00:08:02;9.50;99.90
41262;DHT22;29629;52.532;13.352;2024-02-15T00:10:30;9.60;99.90
41262;DHT22;29629;52.532;13.352;2024-02-15T00:12:57;9.60;99.90
41262;DHT22;29629;52.532;13.352;2024-02-15T00:15:24;9.60;99.90
41262;DHT22;29629;52.532;13.352;2024-02-15T00:17:51;9.60;99.90
41262;DHT22;29629;52.532;13.352;2024-02-15T00:20:18;9.60;99.90
41262;DHT22;29629;52.532;13.352;2024-02-15T00:22:47;9.60;99.90
41262;DHT22;29629;52.532;13.352;2024-02-15T00:25:16;9.60;99.90
41262;DHT22;29629;52.532;13.352;2024-02-15T00:27:43;9.60;99.90
41262;DHT22;29629;52.532;13.352;2024-02-15T00:30:11;9.60;99.90
41262;DHT22;29629;52.532;13.352;2024-02-15T00:32:37;9.60;99.90
41262;DHT22;29629;52.532;13.352;2024-02-15T00:35:05;9.60;99.90
41262;DHT22;29629;52.532;13.352;2024-02-15T00:37:33;9.60;99.90
41262;DHT22;29629;52.532;13.352;2024-02-15T00:40:01;9.60;99.90
41262;DHT22;29629;52.532;13.352;2024-02-15T00:42:30;9.60;99.90
41262;DHT22;29629;52.532;13.352;2024-02-15T00:44:58;9.60;99.90
41262;DHT22;29629;52.532;13.352;2024-02-15T00:47:25;9.60;99.90
41262;DHT22;29629;52.532;13.352;2024-02-15T00:49:54;9.60;99.90
41262;DHT22;29629;52.532;13.352;2024-02-15T00:52:21;9.60;99.90
41262;DHT22;29629;52.532;13.352;2024-02-15T00:54:48;9.60;99.90
41262;DHT22;29629;52.532;13.352;2024-02-15T00:57:16;9.60;99.90
41262;DHT22;29629;52.532;13.352;2024-02-15T00:59:43;9.60;99.90
41262;DHT22;29629;52.532;13.352;2024-02-15T01:02:10;9.60;99.90
41262;DHT22;29629;52.532;13.352;2024-02-15T01:04:38;9.60;99.90
41262;DHT22;29629;52.532;13.352;2024-02-15T01:07:05;9.60;99.90
41262;DHT22;29629;52.532;13.352;2024-02-15T01:09:33;9.60;99.90
41262;DHT22;29629;52.532;13.352;2024-02-15T01:12:00;9.60;99.90
41262;DHT22;29629;52.532;13.352;2024-02-15T01:14:30;9.50;99.90
41262;DHT22;29629;52.532;13.352;2024-02-15T01:16:57;9.60;99.90
41262;DHT22;29629;52.532;13.352;2024-02-15T01:19:24;9.60;99.90
41262;DHT22;29629;52.532;13.352;2024-02-15T01:21:51;9.50;99.90
41262;DHT22;29629;52.532;13.352;2024-02-15T01:24:19;9.50;99.90
41262;DHT22;29629;52.532;13.352;2024-02-15T01:26:46;9.50;99.90
41262;DHT22;29629;52.532;13.352;2024-02-15T01:29:13;9.50;99.90
41262;DHT22;29629;52.532;13.352;2024-02-15T01:31:42;9.50;99.90
41262;DHT22;29629;52.532;13.352;2024-02-15T01:34:10;9.60;99.90
41262;DHT22;29629;52.532;13.352;2024-02-15T01:36:37;9.60;99.90
41262;DHT22;29629;52.532;13.352;2024-02-15T01:39:03;9.60;99.90
41262;DHT22;29629;52.532;13.352;2024-02-15T01:41:30;9.50;99.90
41262;DHT22;29629;52.532;13.352;2024-02-15T01:43:58;9.50;99.90
41262;DHT22;29629;52.532;13.352;2024-02-15T01:46:25;9.50;99.90
41262;DHT22;29629;52.532;13.352;2024-02-15T01:48:53;9.50;99.90
41262;DHT22;29629;52.532;13.352;2024-02-15T01:51:23;9.50;99.90
41262;DHT22;29629;52.532;13.352;2024-02-15T01:53:53;9.50;99.90
41262;DHT22;29629;52.532;13.352;2024-02-15T01:56:23;9.50;99.90
41262;DHT22;29629;52.532;13.352;2024-02-15T01:58:51;9.50;99.90
41262;DHT22;29629;52.532;13.352;2024-02-15T02:01:19;9.50;99.90
41262;DHT22;29629;52.532;13.352;2024-02-15T02:03:47;9.50;99.90
41262;DHT22;29629;52.532;13.352;2024-02-15T02:06:16;9.50;99.90
41262;DHT22;29629;52.532;13.352;2024-02-15T02:08:43;9.50;99.90
41262;DHT22;29629;52.532;13.352;2024-02-15T02:11:09;9.50;99.90
41262;DHT22;29629;52.532;13.352;2024-02-15T02:13:36;9.60;99.90
41262;DHT22;29629;52.532;13.352;2024-02-15T02:16:04;9.60;99.90
41262;DHT22;29629;52.532;13.352;2024-02-15T02:18:32;9.60;99.90
41262;DHT22;29629;52.532;13.352;2024-02-15T02:21:00;9.60;99.90
41262;DHT22;29629;52.532;13.352;2024-02-15T02:23:32;9.60;99.90
41262;DHT22;29629;52.532;13.352;2024-02-15T02:26:01;9.60;99.90
41262;DHT22;29629;52.532;13.352;2024-02-15T02:28:29;9.60;99.90
41262;DHT22;29629;52.532;13.352;2024-02-15T02:30:56;9.60;99.90
41262;DHT22;29629;52.532;13.352;2024-02-15T02:33:23;9.60;99.90
41262;DHT22;29629;52.532;13.352;2024-02-15T02:35:54;9.70;99.90
41262;DHT22;29629;52.532;13.352;2024-02-15T02:38:23;9.70;99.90
41262;DHT22;29629;52.532;13.352;2024-02-15T02:40:52;9.70;99.90
41262;DHT22;29629;52.532;13.352;2024-02-15T02:43:20;9.70;99.90
41262;DHT22;29629;52.532;13.352;2024-02-15T02:45:47;9.70;99.90
41262;DHT22;29629;52.532;13.352;2024-02-15T02:48:14;9.70;99.90
41262;DHT22;29629;52.532;13.352;2024-02-15T02:50:41;9.70;99.90
41262;DHT22;29629;52.532;13.352;2024-02-15T02:53:08;9.70;99.90
41262;DHT22;29629;52.532;13.352;2024-02-15T02:55:36;9.70;99.90
41262;DHT22;29629;52.532;13.352;2024-02-15T02:58:03;9.70;99.90
41262;DHT22;29629;52.532;13.352;2024-02-15T03:00:32;9.70;99.90
41262;DHT22;29629;52.532;13.352;2024-02-15T03:02:59;9.70;99.90
41262;DHT22;29629;52.532;13.352;2024-02-15T03:05:26;9.70;99.90
41262;DHT22;29629;52.532;13.352;2024-02-15T03:07:53;9.70;99.90
41262;DHT22;29629;52.532;13.352;2024-02-15T03:10:20;9.70;99.90
41262;DHT22;29629;52.532;13.352;2024-02-15T03:12:47;9.70;99.90
41262;DHT22;29629;52.532;13.352;2024-02-15T03:15:14;9.70;99.90
41262;DHT22;29629;52.532;13.352;2024-02-15T03:17:43;9.70;99.90
41262;DHT22;29629;52.532;13.352;2024-02-15T03:20:11;9.70;99.90
41262;DHT22;29629;52.532;13.352;2024-02-15T03:22:50;9.70;99.90
41262;DHT22;29629;52.532;13.352;2024-02-15T03:25:17;9.80;99.90
41262;DHT22;29629;52.532;13.352;2024-02-15T03:27:44;9.70;99.90
41262;DHT22;29629;52.532;13.352;2024-02-15T03:30:12;9.70;99.90
41262;DHT22;29629;52.532;13.352;2024-02-15T03:32:39;9.70;99.90
41262;DHT22;29629;52.532;13.352;2024-02-15T03:35:09;9.70;99.90
41262;DHT22;29629;52.532;13.352;2024-02-15T03:37:39;9.70;99.90
41262;DHT22;29629;52.532;13.352;2024-02-15T03:40:07;9.70;99.90
41262;DHT22;29629;52.532;13.352;2024-02-15T03:42:35;9.70;99.90
41262;DHT22;29629;52.532;13.352;2024-02-15T03:45:02;9.70;99.90
41262;DHT22;29629;52.532;13.352;2024-02-15T03:47:31;9.70;99.90
41262;DHT22;29629;52.532;13.352;2024-02-15T03:49:59;9.70;99.90
41262;DHT22;29629;52.532;13.352;2024-02-15T03:52:27;9.70;99.90
41262;DHT22;29629;52.532;13.352;2024-02-15T03:54:55;9.70;99.90
41262;DHT22;29629;52.532;13.352;2024-02-15T03:57:22;9.70;99.90
41262;DHT22;29629;52.532;13.352;2024-02-15T03:59:49;9.70;99.90
41262;DHT22;29629;52.532;13.352;2024-02-15T04:02:18;9.70;99.90
41262;DHT22;29629;52.532;13.352;2024-02-15T04:04:45;9.70;99.90
41262;DHT22;29629;52.532;13.352;2024-02-15T04:07:12;9.70;99.90
41262;DHT22;29629;52.532;13.352;2024-02-15T04:09:41;9.70;99.90
41262;DHT22;29629;52.532;13.352;2024-02-15T04:12:08;9.70;99.90
41262;DHT22;29629;52.532;13.352;2024-02-15T04:14:35;9.70;99.90
41262;DHT22;29629;52.532;13.352;2024-02-15T04:17:04;9.70;99.90
41262;DHT22;29629;52.532;13.352;2024-02-15T04:19:31;9.80;99.90
41262;DHT22;29629;52.532;13.352;2024-02-15T04:21:57;9.80;99.90
41262;DHT22;29629;52.532;13.352;2024-02-15T04:24:25;9.70;99.90
41262;DHT22;29629;52.532;13.352;2024-02-15T04:26:54;9.80;99.90
41262;DHT22;29629;52.532;13.352;2024-02-15T04:29:21;9.70;99.90
41262;DHT22;29629;52.532;13.352;2024-02-15T04:31:47;9.80;99.90
41262;DHT22;29629;52.532;13.352;2024-02-15T04:34:15;9.80;99.90
41262;DHT22;29629;52.532;13.352;2024-02-15T04:36:45;9.80;99.90
41262;DHT22;29629;52.532;13.352;2024-02-15T04:39:15;9.80;99.90
41262;DHT22;29629;52.532;13.352;2024-02-15T04:41:49;9.80;99.90
41262;DHT22;29629;52.532;13.352;2024-02-15T04:44:18;9.90;99.90
41262;DHT22;29629;52.532;13.352;2024-02-15T04:46:46;9.80;99.90
41262;DHT22;29629;52.532;13.352;2024-02-15T04:49:15;9.90;99.90
41262;DHT22;29629;52.532;13.352;2024-02-15T04:51:42;9.90;99.90
41262;DHT22;29629;52.532;13.352;2024-02-15T04:54:09;9.80;99.90
41262;DHT22;29629;52.532;13.352;2024-02-15T04:56:38;9.90;99.90
41262;DHT22;29629;52.532;13.352;2024-02-15T04:59:05;9.90;99.90
41262;DHT22;29629;52.532;13.352;2024-02-15T05:01:35;9.90;99.90
41262;DHT22;29629;52.532;13.352;2024-02-15T05:04:02;9.80;99.90
41262;DHT22;29629;52.532;13.352;2024-02-15T05:06:31;9.90;99.90
41262;DHT22;29629;52.532;13.352;2024-02-15T05:08:58;9.90;99.90
41262;DHT22;29629;52.532;13.352;2024-02-15T05:11:26;9.90;99.90
41262;DHT22;29629;52.532;13.352;2024-02-15T05:13:54;9.90;99.90
41262;DHT22;29629;52.532;13.352;2024-02-15T05:16:21;10.00;99.90
41262;DHT22;29629;52.532;13.352;2024-02-15T05:18:49;9.90;99.90
41262;DHT22;29629;52.532;13.352;2024-02-15T05:21:16;9.80;99.90
41262;DHT22;29629;52.532;13.352;2024-02-15T05:23:43;9.90;99.90
41262;DHT22;29629;52.532;13.352;2024-02-15T05:26:11;10.00;99.90
41262;DHT22;29629;52.532;13.352;2024-02-15T05:28:40;10.00;99.90
41262;DHT22;29629;52.532;13.352;2024-02-15T05:31:10;10.10;99.90
41262;DHT22;29629;52.532;13.352;2024-02-15T05:33:38;10.00;99.90
41262;DHT22;29629;52.532;13.352;2024-02-15T05:36:07;10.00;99.90
41262;DHT22;29629;52.532;13.352;2024-02-15T05:38:35;10.00;99.90
41262;DHT22;29629;52.532;13.352;2024-02-15T05:41:02;10.00;99.90
41262;DHT22;29629;52.532;13.352;2024-02-15T05:43:29;10.00;99.90
41262;DHT22;29629;52.532;13.352;2024-02-15T05:45:57;10.00;99.90
41262;DHT22;29629;52.532;13.352;2024-02-15T05:48:26;10.10;99.90
41262;DHT22;29629;52.532;13.352;2024-02-15T05:50:54;10.00;99.90
41262;DHT22;29629;52.532;13.352;2024-02-15T05:53:22;10.10;99.90
41262;DHT22;29629;52.532;13.352;2024-02-15T05:55:49;10.10;99.90
41262;DHT22;29629;52.532;13.352;2024-02-15T05:58:16;10.10;99.90
41262;DHT22;29629;52.532;13.352;2024-02-15T06:00:43;10.10;99.90
41262;DHT22;29629;52.532;13.352;2024-02-15T06:03:12;10.10;99.90
41262;DHT22;29629;52.532;13.352;2024-02-15T06:05:39;10.10;99.90
41262;DHT22;29629;52.532;13.352;2024-02-15T06:08:07;10.10;99.90
41262;DHT22;29629;52.532;13.352;2024-02-15T06:10:35;10.20;99.90
41262;DHT22;29629;52.532;13.352;2024-02-15T06:13:02;10.20;99.90
41262;DHT22;29629;52.532;13.352;2024-02-15T06:15:29;10.20;99.90
41262;DHT22;29629;52.532;13.352;2024-02-15T06:17:57;10.20;99.90
41262;DHT22;29629;52.532;13.352;2024-02-15T06:20:24;10.20;99.90
41262;DHT22;29629;52.532;13.352;2024-02-15T06:22:54;10.20;99.90
41262;DHT22;29629;52.532;13.352;2024-02-15T06:25:22;10.20;99.90
41262;DHT22;29629;52.532;13.352;2024-02-15T06:27:53;10.10;99.90
41262;DHT22;29629;52.532;13.352;2024-02-15T06:30:25;10.20;99.90
41262;DHT22;29629;52.532;13.352;2024-02-15T06:33:09;10.20;99.90
41262;DHT22;29629;52.532;13.352;2024-02-15T06:35:53;10.20;99.90
41262;DHT22;29629;52.532;13.352;2024-02-15T06:38:37;10.30;99.90
41262;DHT22;29629;52.532;13.352;2024-02-15T06:41:21;10.20;99.90
41262;DHT22;29629;52.532;13.352;2024-02-15T06:43:51;10.20;99.90
41262;DHT22;29629;52.532;13.352;2024-02-15T06:46:17;10.20;99.90
41262;DHT22;29629;52.532;13.352;2024-02-15T06:48:45;10.20;99.90
41262;DHT22;29629;52.532;13.352;2024-02-15T06:51:12;10.20;99.90
41262;DHT22;29629;52.532;13.352;2024-02-15T06:53:40;10.20;99.90
41262;DHT22;29629;52.532;13.352;2024-02-15T06:56:09;10.20;99.90
41262;DHT22;29629;52.532;13.352;2024-02-15T06:58:36;10.20;99.90
41262;DHT22;29629;52.532;13.352;2024-02-15T07:01:04;10.20;99.90
41262;DHT22;29629;52.532;13.352;2024-02-15T07:03:32;10.20;99.90
41262;DHT22;29629;52.532;13.352;2024-02-15T07:05:58;10.30;99.90
41262;DHT22;29629;52.532;13.352;2024-02-15T07:08:25;10.30;99.90
41262;DHT22;29629;52.532;13.352;2024-02-15T07:10:52;10.30;99.90
41262;DHT22;29629;52.532;13.352;2024-02-15T07:13:19;10.40;99.90
41262;DHT22;29629;52.532;13.352;2024-02-15T07:15:46;10.40;99.90
41262;DHT22;29629;52.532;13.352;2024-02-15T07:18:17;10.40;99.90
41262;DHT22;29629;52.532;13.352;2024-02-15T07:20:46;10.40;99.90
41262;DHT22;29629;52.532;13.352;2024-02-15T07:23:13;10.50;99.90
41262;DHT22;29629;52.532;13.352;2024-02-15T07:25:40;10.40;99.90
41262;DHT22;29629;52.532;13.352;2024-02-15T07:28:07;10.50;99.90
41262;DHT22;29629;52.532;13.352;2024-02-15T07:30:35;10.50;99.90
41262;DHT22;29629;52.532;13.352;2024-02-15T07:33:03;10.50;99.90
41262;DHT22;29629;52.532;13.352;2024-02-15T07:35:33;10.60;99.90
41262;DHT22;29629;52.532;13.352;2024-02-15T07:38:00;10.60;99.90
41262;DHT22;29629;52.532;13.352;2024-02-15T07:40:28;10.60;99.90
41262;DHT22;29629;52.532;13.352;2024-02-15T07:42:56;10.60;99.90
41262;DHT22;29629;52.532;13.352;2024-02-15T07:45:24;10.60;99.90
41262;DHT22;29629;52.532;13.352;2024-02-15T07:47:51;10.60;99.90
41262;DHT22;29629;52.532;13.352;2024-02-15T07:50:18;10.60;99.90
41262;DHT22;29629;52.532;13.352;2024-02-15T07:52:49;10.70;99.90
41262;DHT22;29629;52.532;13.352;2024-02-15T07:55:17;10.70;99.90
41262;DHT22;29629;52.532;13.352;2024-02-15T07:57:44;10.70;99.90
41262;DHT22;29629;52.532;13.352;2024-02-15T08:00:13;10.80;99.90
41262;DHT22;29629;52.532;13.352;2024-02-15T08:02:42;10.80;99.90
41262;DHT22;29629;52.532;13.352;2024-02-15T08:05:09;10.80;99.90
41262;DHT22;29629;52.532;13.352;2024-02-15T08:07:37;10.80;99.90
41262;DHT22;29629;52.532;13.352;2024-02-15T08:10:07;10.90;99.90
41262;DHT22;29629;52.532;13.352;2024-02-15T08:12:39;10.90;99.90
41262;DHT22;29629;52.532;13.352;2024-02-15T08:15:07;10.90;99.90
41262;DHT22;29629;52.532;13.352;2024-02-15T08:17:38;10.90;99.90
41262;DHT22;29629;52.532;13.352;2024-02-15T08:20:07;10.90;99.90
41262;DHT22;29629;52.532;13.352;2024-02-15T08:22:34;10.90;99.90
41262;DHT22;29629;52.532;13.352;2024-02-15T08:25:07;10.90;99.90
41262;DHT22;29629;52.532;13.352;2024-02-15T08:27:37;11.00;99.90
41262;DHT22;29629;52.532;13.352;2024-02-15T08:30:08;11.00;99.90
41262;DHT22;29629;52.532;13.352;2024-02-15T08:32:36;11.00;99.90
41262;DHT22;29629;52.532;13.352;2024-02-15T08:35:04;11.00;99.90
41262;DHT22;29629;52.532;13.352;2024-02-15T08:37:31;11.00;99.90
41262;DHT22;29629;52.532;13.352;2024-02-15T08:39:59;11.00;99.90
41262;DHT22;29629;52.532;13.352;2024-02-15T08:42:28;11.00;99.90
41262;DHT22;29629;52.532;13.352;2024-02-15T08:44:55;11.00;99.90
41262;DHT22;29629;52.532;13.352;2024-02-15T08:47:22;11.00;99.90
41262;DHT22;29629;52.532;13.352;2024-02-15T08:49:48;11.00;99.90
41262;DHT22;29629;52.532;13.352;2024-02-15T08:52:15;11.00;99.90
41262;DHT22;29629;52.532;13.352;2024-02-15T08:54:44;11.10;99.90
41262;DHT22;29629;52.532;13.352;2024-02-15T08:57:11;11.00;99.90
41262;DHT22;29629;52.532;13.352;2024-02-15T08:59:40;11.10;99.90
41262;DHT22;29629;52.532;13.352;2024-02-15T09:02:08;11.10;99.90
41262;DHT22;29629;52.532;13.352;2024-02-15T09:04:35;11.20;99.90
41262;DHT22;29629;52.532;13.352;2024-02-15T09:07:02;11.20;99.90
41262;DHT22;29629;52.532;13.352;2024-02-15T09:09:30;11.30;99.90
41262;DHT22;29629;52.532;13.352;2024-02-15T09:12:01;11.30;99.90
41262;DHT22;29629;52.532;13.352;2024-02-15T09:14:31;11.30;99.90
41262;DHT22;29629;52.532;13.352;2024-02-15T09:16:59;11.40;99.90
41262;DHT22;29629;52.532;13.352;2024-02-15T09:19:27;11.50;99.90
41262;DHT22;29629;52.532;13.352;2024-02-15T09:21:54;11.40;99.90
41262;DHT22;29629;52.532;13.352;2024-02-15T09:24:22;11.50;99.90
41262;DHT22;29629;52.532;13.352;2024-02-15T09:26:50;11.40;99.90
41262;DHT22;29629;52.532;13.352;2024-02-15T09:29:18;11.50;99.90
41262;DHT22;29629;52.532;13.352;2024-02-15T09:31:46;11.60;99.90
41262;DHT22;29629;52.532;13.352;2024-02-15T09:34:15;11.50;99.90
41262;DHT22;29629;52.532;13.352;2024-02-15T09:36:42;11.50;99.90
41262;DHT22;29629;52.532;13.352;2024-02-15T09:39:08;11.40;99.90
41262;DHT22;29629;52.532;13.352;2024-02-15T09:41:39;11.50;99.90
41262;DHT22;29629;52.532;13.352;2024-02-15T09:44:08;11.50;99.90
41262;DHT22;29629;52.532;13.352;2024-02-15T09:46:36;11.50;99.90
41262;DHT22;29629;52.532;13.352;2024-02-15T09:49:04;11.40;99.90
41262;DHT22;29629;52.532;13.352;2024-02-15T09:51:34;11.50;99.90
41262;DHT22;29629;52.532;13.352;2024-02-15T09:54:03;11.50;99.90
41262;DHT22;29629;52.532;13.352;2024-02-15T09:56:31;11.60;99.90
41262;DHT22;29629;52.532;13.352;2024-02-15T09:58:59;11.60;99.90
41262;DHT22;29629;52.532;13.352;2024-02-15T10:01:27;11.60;99.90
41262;DHT22;29629;52.532;13.352;2024-02-15T10:03:58;11.70;99.90
41262;DHT22;29629;52.532;13.352;2024-02-15T10:06:26;11.70;99.90
41262;DHT22;29629;52.532;13.352;2024-02-15T10:09:24;11.80;99.90
41262;DHT22;29629;52.532;13.352;2024-02-15T10:11:56;11.70;99.90
41262;DHT22;29629;52.532;13.352;2024-02-15T10:14:24;11.90;99.90
41262;DHT22;29629;52.532;13.352;2024-02-15T10:16:51;11.90;99.90
41262;DHT22;29629;52.532;13.352;2024-02-15T10:19:19;11.90;99.90
41262;DHT22;29629;52.532;13.352;2024-02-15T10:21:51;12.00;99.90
41262;DHT22;29629;52.532;13.352;2024-02-15T10:24:22;12.10;99.90
41262;DHT22;29629;52.532;13.352;2024-02-15T10:26:50;12.10;99.90
41262;DHT22;29629;52.532;13.352;2024-02-15T10:29:18;12.10;99.90
41262;DHT22;29629;52.532;13.352;2024-02-15T10:32:04;12.20;99.90
41262;DHT22;29629;52.532;13.352;2024-02-15T10:34:43;12.20;99.90
41262;DHT22;29629;52.532;13.352;2024-02-15T10:37:12;12.30;99.90
41262;DHT22;29629;52.532;13.352;2024-02-15T10:39:41;12.30;99.90
41262;DHT22;29629;52.532;13.352;2024-02-15T10:42:08;12.30;99.90
41262;DHT22;29629;52.532;13.352;2024-02-15T10:44:37;12.40;99.90
41262;DHT22;29629;52.532;13.352;2024-02-15T10:47:06;12.40;99.90
41262;DHT22;29629;52.532;13.352;2024-02-15T10:49:34;12.50;99.90
41262;DHT22;29629;52.532;13.352;2024-02-15T10:52:02;12.60;99.90
41262;DHT22;29629;52.532;13.352;2024-02-15T10:54:55;12.60;99.90
41262;DHT22;29629;52.532;13.352;2024-02-15T10:57:27;12.60;99.90
41262;DHT22;29629;52.532;13.352;2024-02-15T10:59:56;12.60;99.90
41262;DHT22;29629;52.532;13.352;2024-02-15T11:02:27;12.60;99.90
41262;DHT22;29629;52.532;13.352;2024-02-15T11:04:59;12.70;99.90
41262;DHT22;29629;52.532;13.352;2024-02-15T11:07:29;12.70;99.90
41262;DHT22;29629;52.532;13.352;2024-02-15T11:09:59;12.70;99.90
41262;DHT22;29629;52.532;13.352;2024-02-15T11:12:26;12.70;99.90
41262;DHT22;29629;52.532;13.352;2024-02-15T11:14:54;12.80;99.90
41262;DHT22;29629;52.532;13.352;2024-02-15T11:17:46;12.90;99.90
41262;DHT22;29629;52.532;13.352;2024-02-15T11:20:47;12.80;99.90
41262;DHT22;29629;52.532;13.352;2024-02-15T11:23:25;12.90;99.90
41262;DHT22;29629;52.532;13.352;2024-02-15T11:25:54;12.90;99.90
41262;DHT22;29629;52.532;13.352;2024-02-15T11:28:38;12.80;99.90
41262;DHT22;29629;52.532;13.352;2024-02-15T11:31:09;12.90;99.90
41262;DHT22;29629;52.532;13.352;2024-02-15T11:33:38;12.80;99.90
41262;DHT22;29629;52.532;13.352;2024-02-15T11:36:07;12.90;99.90
41262;DHT22;29629;52.532;13.352;2024-02-15T11:38:34;12.90;99.90
41262;DHT22;29629;52.532;13.352;2024-02-15T11:41:04;12.90;99.90
41262;DHT22;29629;52.532;13.352;2024-02-15T11:43:51;12.90;99.90
41262;DHT22;29629;52.532;13.352;2024-02-15T11:46:25;12.90;99.90
41262;DHT22;29629;52.532;13.352;2024-02-15T11:48:56;12.80;99.90
41262;DHT22;29629;52.532;13.352;2024-02-15T11:51:28;12.80;99.90
41262;DHT22;29629;52.532;13.352;2024-02-15T11:54:02;12.90;99.90
41262;DHT22;29629;52.532;13.352;2024-02-15T11:56:51;12.90;99.90
41262;DHT22;29629;52.532;13.352;2024-02-15T11:59:20;12.90;99.90
41262;DHT22;29629;52.532;13.352;2024-02-15T12:01:58;12.90;99.90
41262;DHT22;29629;52.532;13.352;2024-02-15T12:04:42;12.90;99.90
41262;DHT22;29629;52.532;13.352;2024-02-15T12:07:27;12.80;99.90
41262;DHT22;29629;52.532;13.352;2024-02-15T12:10:16;12.80;99.90
41262;DHT22;29629;52.532;13.352;2024-02-15T12:13:17;12.80;99.90
41262;DHT22;29629;52.532;13.352;2024-02-15T12:16:01;12.80;99.90
41262;DHT22;29629;52.532;13.352;2024-02-15T12:18:46;12.80;99.90
41262;DHT22;29629;52.532;13.352;2024-02-15T12:21:19;12.80;99.90
41262;DHT22;29629;52.532;13.352;2024-02-15T12:23:49;12.80;99.90
41262;DHT22;29629;52.532;13.352;2024-02-15T12:26:18;12.80;99.90
41262;DHT22;29629;52.532;13.352;2024-02-15T12:28:51;12.90;99.90
41262;DHT22;29629;52.532;13.352;2024-02-15T12:31:20;12.90;99.90
41262;DHT22;29629;52.532;13.352;2024-02-15T12:33:59;13.10;99.90
41262;DHT22;29629;52.532;13.352;2024-02-15T12:36:27;13.00;99.90
41262;DHT22;29629;52.532;13.352;2024-02-15T12:39:01;13.10;99.90
41262;DHT22;29629;52.532;13.352;2024-02-15T12:41:35;13.10;99.90
41262;DHT22;29629;52.532;13.352;2024-02-15T12:44:04;13.10;99.90
41262;DHT22;29629;52.532;13.352;2024-02-15T12:46:32;13.20;99.90
41262;DHT22;29629;52.532;13.352;2024-02-15T12:49:28;13.10;99.90
41262;DHT22;29629;52.532;13.352;2024-02-15T12:52:35;13.10;99.90
41262;DHT22;29629;52.532;13.352;2024-02-15T12:55:10;13.20;99.90
41262;DHT22;29629;52.532;13.352;2024-02-15T12:57:37;13.30;99.90
41262;DHT22;29629;52.532;13.352;2024-02-15T13:00:09;13.30;99.90
41262;DHT22;29629;52.532;13.352;2024-02-15T13:02:44;13.40;99.90
41262;DHT22;29629;52.532;13.352;2024-02-15T13:05:11;13.40;99.90
41262;DHT22;29629;52.532;13.352;2024-02-15T13:07:39;13.40;99.90
41262;DHT22;29629;52.532;13.352;2024-02-15T13:10:07;13.50;99.90
41262;DHT22;29629;52.532;13.352;2024-02-15T13:12:36;13.50;99.90
41262;DHT22;29629;52.532;13.352;2024-02-15T13:15:11;13.50;99.90
41262;DHT22;29629;52.532;13.352;2024-02-15T13:17:47;13.60;99.90
41262;DHT22;29629;52.532;13.352;2024-02-15T13:20:17;13.60;99.90
41262;DHT22;29629;52.532;13.352;2024-02-15T13:22:46;13.50;99.90
41262;DHT22;29629;52.532;13.352;2024-02-15T13:25:14;13.50;99.90
41262;DHT22;29629;52.532;13.352;2024-02-15T13:27:42;13.50;99.90
41262;DHT22;29629;52.532;13.352;2024-02-15T13:30:13;13.50;99.90
41262;DHT22;29629;52.532;13.352;2024-02-15T13:32:42;13.50;99.90
41262;DHT22;29629;52.532;13.352;2024-02-15T13:35:10;13.50;99.90
41262;DHT22;29629;52.532;13.352;2024-02-15T13:37:42;13.60;99.90
41262;DHT22;29629;52.532;13.352;2024-02-15T13:40:10;13.60;99.90
41262;DHT22;29629;52.532;13.352;2024-02-15T13:42:41;13.70;99.90
41262;DHT22;29629;52.532;13.352;2024-02-15T13:45:14;13.80;99.90
41262;DHT22;29629;52.532;13.352;2024-02-15T13:47:41;13.80;99.90
41262;DHT22;29629;52.532;13.352;2024-02-15T13:50:11;13.70;99.90
41262;DHT22;29629;52.532;13.352;2024-02-15T13:52:40;13.70;99.90
41262;DHT22;29629;52.532;13.352;2024-02-15T13:55:09;13.70;99.90
41262;DHT22;29629;52.532;13.352;2024-02-15T13:57:39;13.70;99.90
41262;DHT22;29629;52.532;13.352;2024-02-15T14:00:08;13.70;99.90
41262;DHT22;29629;52.532;13.352;2024-02-15T14:02:40;13.60;99.90
41262;DHT22;29629;52.532;13.352;2024-02-15T14:05:08;13.70;99.90
41262;DHT22;29629;52.532;13.352;2024-02-15T14:07:37;13.70;99.90
41262;DHT22;29629;52.532;13.352;2024-02-15T14:10:05;13.80;99.90
41262;DHT22;29629;52.532;13.352;2024-02-15T14:12:33;14.00;99.90
41262;DHT22;29629;52.532;13.352;2024-02-15T14:15:00;14.00;99.90
41262;DHT22;29629;52.532;13.352;2024-02-15T14:17:27;14.00;99.90
41262;DHT22;29629;52.532;13.352;2024-02-15T14:19:56;14.00;99.90
41262;DHT22;29629;52.532;13.352;2024-02-15T14:22:23;13.80;99.90
41262;DHT22;29629;52.532;13.352;2024-02-15T14:24:54;13.80;99.90
41262;DHT22;29629;52.532;13.352;2024-02-15T14:27:21;13.70;99.90
41262;DHT22;29629;52.532;13.352;2024-02-15T14:29:48;13.70;99.90
41262;DHT22;29629;52.532;13.352;2024-02-15T14:32:29;13.70;99.90
41262;DHT22;29629;52.532;13.352;2024-02-15T14:35:15;13.60;99.90
41262;DHT22;29629;52.532;13.352;2024-02-15T14:37:42;13.60;99.90
41262;DHT22;29629;52.532;13.352;2024-02-15T14:40:10;13.60;99.90
41262;DHT22;29629;52.532;13.352;2024-02-15T14:42:39;13.70;99.90
41262;DHT22;29629;52.532;13.352;2024-02-15T14:45:08;13.70;99.90
41262;DHT22;29629;52.532;13.352;2024-02-15T14:47:35;13.70;99.90
41262;DHT22;29629;52.532;13.352;2024-02-15T14:50:03;13.80;99.90
41262;DHT22;29629;52.532;13.352;2024-02-15T14:52:36;13.80;99.90
41262;DHT22;29629;52.532;13.352;2024-02-15T14:55:03;13.80;99.90
41262;DHT22;29629;52.532;13.352;2024-02-15T14:57:33;13.80;99.90
41262;DHT22;29629;52.532;13.352;2024-02-15T15:00:01;13.80;99.90
41262;DHT22;29629;52.532;13.352;2024-02-15T15:02:30;13.80;99.90
41262;DHT22;29629;52.532;13.352;2024-02-15T15:04:57;13.80;99.90
41262;DHT22;29629;52.532;13.352;2024-02-15T15:07:39;13.70;99.90
41262;DHT22;29629;52.532;13.352;2024-02-15T15:10:23;13.70;99.90
41262;DHT22;29629;52.532;13.352;2024-02-15T15:13:08;13.70;99.90
41262;DHT22;29629;52.532;13.352;2024-02-15T15:15:36;13.90;99.90
41262;DHT22;29629;52.532;13.352;2024-02-15T15:18:05;13.60;99.90
41262;DHT22;29629;52.532;13.352;2024-02-15T15:20:33;13.60;99.90
41262;DHT22;29629;52.532;13.352;2024-02-15T15:23:01;13.60;99.90
41262;DHT22;29629;52.532;13.352;2024-02-15T15:25:30;13.60;99.90
41262;DHT22;29629;52.532;13.352;2024-02-15T15:27:57;13.60;99.90
41262;DHT22;29629;52.532;13.352;2024-02-15T15:30:24;13.60;99.90
41262;DHT22;29629;52.532;13.352;2024-02-15T15:32:51;13.60;99.90
41262;DHT22;29629;52.532;13.352;2024-02-15T15:35:18;13.50;99.90